Time;durP1;ratioP1;P1;durP2;ratioP2;P2;SDS_P1;SDS_P2;PMS_P1;PMS_P2;Temp;Humidity;BMP_temperature;BMP_pressure;BME280_temperature;BME280_humidity;BME280_pressure;Samples;Min_cycle;Max_cycle;Signal;HPM_P1;HPM_P2
2020/12/10 00:02:13;;;;;;;34.22;19.52;;;2.10;99.90;;;;;;5012347;28;20465;-68
2020/12/10 00:04:39;;;;;;;32.67;19.27;;;2.00;99.90;;;;;;5009433;28;20030;-68
2020/12/10 00:07:06;;;;;;;33.08;20.65;;;2.00;99.90;;;;;;5012168;28;20064;-69
2020/12/10 00:09:31;;;;;;;31.80;19.15;;;2.00;99.90;;;;;;5012122;28;20093;-68
2020/12/10 00:11:59;;;;;;;34.80;20.17;;;1.90;99.90;;;;;;5010633;28;20133;-70
2020/12/10 00:14:25;;;;;;;32.25;18.83;;;1.90;99.90;;;;;;5011627;28;20018;-68
2020/12/10 00:16:51;;;;;;;32.58;19.52;;;1.90;99.90;;;;;;5011865;28;20475;-70
2020/12/10 00:19:16;;;;;;;37.35;21.42;;;1.80;99.90;;;;;;5012037;28;20030;-70
2020/12/10 00:21:42;;;;;;;33.95;19.73;;;1.80;99.90;;;;;;5012040;28;20235;-68
2020/12/10 00:24:08;;;;;;;32.67;19.58;;;1.80;99.90;;;;;;5011159;28;20030;-69
2020/12/10 00:26:33;;;;;;;34.88;20.63;;;1.80;99.90;;;;;;5011887;28;20033;-68
2020/12/10 00:28:59;;;;;;;37.20;20.10;;;1.70;99.90;;;;;;5011672;28;20034;-69
2020/12/10 00:31:24;;;;;;;37.30;20.88;;;1.70;99.90;;;;;;5010815;28;20368;-70
2020/12/10 00:33:50;;;;;;;35.30;20.48;;;1.70;99.90;;;;;;5012000;28;20032;-69
2020/12/10 00:36:16;;;;;;;36.22;20.85;;;1.70;99.90;;;;;;5011716;28;20385;-69
2020/12/10 00:38:42;;;;;;;35.15;21.42;;;1.60;99.90;;;;;;5011817;28;20179;-69
2020/12/10 00:41:07;;;;;;;40.78;22.10;;;1.70;99.90;;;;;;5011879;28;20076;-69
2020/12/10 00:43:33;;;;;;;34.17;20.48;;;1.60;99.90;;;;;;5010971;28;20026;-69
2020/12/10 00:46:03;;;;;;;38.67;20.95;;;1.50;99.90;;;;;;5010734;28;20082;-69
2020/12/10 00:48:29;;;;;;;35.28;19.52;;;1.50;99.90;;;;;;5010613;28;20025;-69
2020/12/10 00:50:55;;;;;;;43.58;21.90;;;1.40;99.90;;;;;;5011660;28;20018;-69
2020/12/10 00:53:20;;;;;;;40.72;21.77;;;1.40;99.90;;;;;;5010469;28;20029;-70
2020/12/10 00:55:46;;;;;;;41.63;22.00;;;1.50;99.90;;;;;;5011253;28;20040;-69
2020/12/10 00:58:12;;;;;;;42.83;20.63;;;1.40;99.90;;;;;;5011146;28;20136;-69
2020/12/10 01:00:37;;;;;;;39.17;20.60;;;1.30;99.90;;;;;;5010814;28;20076;-69
2020/12/10 01:03:03;;;;;;;38.50;20.80;;;1.30;99.90;;;;;;5010317;28;20057;-70
2020/12/10 01:05:29;;;;;;;38.05;20.48;;;1.30;99.90;;;;;;5010889;28;20496;-69
2020/12/10 01:07:55;;;;;;;43.83;21.02;;;1.20;99.90;;;;;;5012741;28;20026;-69
2020/12/10 01:10:20;;;;;;;46.67;22.88;;;1.20;99.90;;;;;;5020155;28;20084;-68
2020/12/10 01:12:46;;;;;;;48.55;23.10;;;1.10;99.90;;;;;;5012169;28;20095;-69
2020/12/10 01:15:12;;;;;;;49.40;23.08;;;1.10;99.90;;;;;;5010580;28;20084;-69
2020/12/10 01:17:41;;;;;;;50.85;23.50;;;1.20;99.90;;;;;;5008955;28;20029;-69
2020/12/10 01:20:08;;;;;;;51.78;24.33;;;1.10;99.90;;;;;;5011026;28;20094;-67
2020/12/10 01:22:34;;;;;;;53.55;25.10;;;1.20;99.90;;;;;;5010787;28;20494;-68
2020/12/10 01:25:00;;;;;;;47.65;22.35;;;1.20;99.90;;;;;;5009858;28;20026;-68
2020/12/10 01:27:25;;;;;;;49.15;23.02;;;1.20;99.90;;;;;;5010706;28;20026;-68
2020/12/10 01:29:51;;;;;;;51.30;23.90;;;1.20;99.90;;;;;;5013656;28;20476;-70
2020/12/10 01:32:17;;;;;;;50.00;24.00;;;1.20;99.90;;;;;;5010803;28;20631;-69
2020/12/10 01:34:43;;;;;;;62.10;27.02;;;1.20;99.90;;;;;;5009230;28;20076;-69
2020/12/10 01:37:09;;;;;;;64.72;28.05;;;1.30;99.90;;;;;;5010911;28;20045;-69
2020/12/10 01:39:35;;;;;;;57.17;25.35;;;1.40;99.90;;;;;;5011008;28;20514;-69
2020/12/10 01:42:01;;;;;;;53.85;24.63;;;1.50;99.90;;;;;;5011437;28;20026;-69
2020/12/10 01:44:27;;;;;;;62.65;27.55;;;1.40;99.90;;;;;;5009867;28;20022;-69
2020/12/10 01:46:52;;;;;;;54.08;25.55;;;1.50;99.90;;;;;;5010201;28;20034;-69
2020/12/10 01:49:19;;;;;;;61.17;26.80;;;1.50;99.90;;;;;;5010820;28;20104;-69
2020/12/10 01:51:44;;;;;;;60.17;26.85;;;1.50;99.90;;;;;;5011156;28;20387;-69
2020/12/10 01:54:10;;;;;;;57.67;26.95;;;1.60;99.90;;;;;;5010605;28;20029;-69
2020/12/10 01:56:36;;;;;;;53.70;25.75;;;1.60;99.90;;;;;;5009995;28;20045;-69
2020/12/10 01:59:03;;;;;;;55.42;25.88;;;1.60;99.90;;;;;;5010182;28;20473;-69
2020/12/10 02:01:31;;;;;;;54.47;26.10;;;1.70;99.90;;;;;;5013756;28;20036;-69
2020/12/10 02:03:57;;;;;;;53.95;25.25;;;1.60;99.90;;;;;;5013630;28;20053;-70
2020/12/10 02:06:23;;;;;;;57.33;26.95;;;1.60;99.90;;;;;;5014301;28;20046;-69
2020/12/10 02:08:48;;;;;;;57.45;26.98;;;1.60;99.90;;;;;;5014569;28;20518;-68
2020/12/10 02:11:14;;;;;;;51.83;26.05;;;1.70;99.90;;;;;;5014696;28;20361;-69
2020/12/10 02:13:40;;;;;;;49.10;26.73;;;1.60;99.90;;;;;;5014247;28;20022;-71
2020/12/10 02:16:07;;;;;;;52.10;26.73;;;1.80;99.90;;;;;;5015150;28;20085;-70
2020/12/10 02:18:33;;;;;;;53.97;26.60;;;1.70;99.90;;;;;;5015452;28;20476;-70
2020/12/10 02:20:59;;;;;;;52.53;25.73;;;1.70;99.90;;;;;;5015108;28;20034;-70
2020/12/10 02:23:25;;;;;;;50.75;24.45;;;1.80;99.90;;;;;;5013939;28;20041;-70
2020/12/10 02:25:51;;;;;;;48.45;24.73;;;1.70;99.90;;;;;;5014234;28;20112;-69
2020/12/10 02:28:18;;;;;;;48.22;25.60;;;1.70;99.90;;;;;;5014642;28;20030;-70
2020/12/10 02:30:46;;;;;;;52.60;25.00;;;1.70;99.90;;;;;;5014386;28;20089;-70
2020/12/10 02:33:13;;;;;;;53.05;25.35;;;1.80;99.90;;;;;;5014035;28;20072;-68
2020/12/10 02:35:41;;;;;;;51.25;25.20;;;1.80;99.90;;;;;;5015027;28;20469;-69
2020/12/10 02:38:09;;;;;;;48.67;24.60;;;1.80;99.90;;;;;;5014882;28;20026;-69
2020/12/10 02:40:46;;;;;;;47.47;25.10;;;1.90;99.90;;;;;;5015036;28;20032;-69
2020/12/10 02:43:12;;;;;;;43.92;23.95;;;1.80;99.90;;;;;;5013780;28;20092;-69
2020/12/10 02:45:40;;;;;;;45.38;24.13;;;1.50;99.90;;;;;;5014731;28;20038;-68
2020/12/10 02:48:06;;;;;;;45.75;23.83;;;1.80;99.90;;;;;;5013184;28;20021;-69
2020/12/10 02:50:32;;;;;;;44.55;23.40;;;1.80;99.90;;;;;;5011819;28;20508;-68
2020/12/10 02:52:58;;;;;;;43.65;23.15;;;1.80;99.90;;;;;;5012996;28;20065;-69
2020/12/10 02:55:23;;;;;;;41.13;22.23;;;1.80;99.90;;;;;;5014411;28;20034;-69
2020/12/10 02:57:49;;;;;;;43.35;22.23;;;1.80;99.90;;;;;;5013914;28;20018;-71
2020/12/10 03:00:15;;;;;;;44.55;23.40;;;1.90;99.90;;;;;;5014398;28;20038;-69
2020/12/10 03:02:40;;;;;;;44.30;23.48;;;1.90;99.90;;;;;;5013584;28;20056;-69
2020/12/10 03:05:07;;;;;;;39.67;22.65;;;1.90;99.90;;;;;;5013643;28;20045;-68
2020/12/10 03:07:33;;;;;;;41.63;21.80;;;1.90;99.90;;;;;;5013762;28;20026;-69
2020/12/10 03:10:00;;;;;;;42.50;23.00;;;1.90;99.90;;;;;;5012082;28;20400;-69
2020/12/10 03:12:25;;;;;;;44.75;22.75;;;1.90;99.90;;;;;;5013998;28;20444;-71
2020/12/10 03:14:51;;;;;;;37.15;21.25;;;1.90;99.90;;;;;;5012710;28;20131;-70
2020/12/10 03:17:17;;;;;;;40.80;21.88;;;1.90;99.90;;;;;;5013291;28;20300;-68
2020/12/10 03:19:42;;;;;;;42.47;22.70;;;1.90;99.90;;;;;;5014738;28;20022;-69
2020/12/10 03:22:13;;;;;;;39.85;23.17;;;1.80;99.90;;;;;;5011985;28;20026;-69
2020/12/10 03:24:39;;;;;;;41.05;21.55;;;1.80;99.90;;;;;;5010984;28;20037;-71
2020/12/10 03:27:05;;;;;;;37.63;21.13;;;2.00;99.90;;;;;;5013399;28;20022;-70
2020/12/10 03:29:30;;;;;;;37.78;21.33;;;1.80;99.90;;;;;;5013355;28;20041;-70
2020/12/10 03:31:56;;;;;;;41.47;22.10;;;1.90;99.90;;;;;;5012723;28;20099;-70
2020/12/10 03:34:21;;;;;;;39.15;20.92;;;2.00;99.90;;;;;;5012353;28;20025;-69
2020/12/10 03:36:54;;;;;;;41.30;21.48;;;1.90;99.90;;;;;;5012787;28;20026;-70
2020/12/10 03:39:22;;;;;;;43.83;23.63;;;1.90;99.90;;;;;;5012696;28;20155;-69
2020/12/10 03:41:48;;;;;;;42.22;23.50;;;2.00;99.90;;;;;;5012585;28;20064;-69
2020/12/10 03:44:15;;;;;;;36.70;20.88;;;2.00;99.90;;;;;;5011791;28;20696;-69
2020/12/10 03:46:40;;;;;;;39.58;20.95;;;1.90;99.90;;;;;;5012364;28;20096;-69
2020/12/10 03:49:08;;;;;;;42.67;23.33;;;1.90;99.90;;;;;;5012015;28;20041;-69
2020/12/10 03:51:34;;;;;;;37.17;21.10;;;2.00;99.90;;;;;;5011939;28;20025;-70
2020/12/10 03:54:00;;;;;;;39.75;23.25;;;1.90;99.90;;;;;;5011492;28;20026;-69
2020/12/10 03:56:25;;;;;;;35.67;22.02;;;1.90;99.90;;;;;;5012204;28;20045;-69
2020/12/10 03:58:51;;;;;;;40.17;22.65;;;2.00;99.90;;;;;;5030250;28;20491;-70
2020/12/10 04:01:17;;;;;;;38.35;22.90;;;2.00;99.90;;;;;;5028392;28;20030;-69
2020/12/10 04:03:43;;;;;;;39.28;21.30;;;1.90;99.90;;;;;;5024479;28;20026;-70
2020/12/10 04:06:09;;;;;;;36.58;21.65;;;1.90;99.90;;;;;;5023412;28;20044;-70
2020/12/10 04:08:36;;;;;;;42.63;21.83;;;2.00;99.90;;;;;;5017479;28;20030;-69
2020/12/10 04:11:01;;;;;;;38.90;21.65;;;2.00;99.90;;;;;;4997250;28;20125;-69
2020/12/10 04:13:27;;;;;;;37.58;21.70;;;2.00;99.90;;;;;;4991544;28;20054;-71
2020/12/10 04:15:52;;;;;;;38.13;20.92;;;1.90;99.90;;;;;;4992158;28;20027;-70
2020/12/10 04:18:18;;;;;;;38.45;22.40;;;2.00;99.90;;;;;;4990990;28;20033;-70
2020/12/10 04:20:44;;;;;;;37.28;20.67;;;2.00;99.90;;;;;;4992400;28;20035;-70
2020/12/10 04:23:09;;;;;;;34.42;21.42;;;1.90;99.90;;;;;;4990890;28;20031;-70
2020/12/10 04:25:35;;;;;;;33.83;19.30;;;1.90;99.90;;;;;;4991306;28;20038;-70
2020/12/10 04:28:01;;;;;;;34.78;20.85;;;1.90;99.90;;;;;;4992085;28;20137;-70
2020/12/10 04:30:26;;;;;;;37.58;20.15;;;1.90;99.90;;;;;;4990787;28;20434;-72
2020/12/10 04:32:52;;;;;;;37.90;20.92;;;1.90;99.90;;;;;;4991361;28;20027;-70
2020/12/10 04:35:18;;;;;;;35.38;21.17;;;1.90;99.90;;;;;;4990918;28;20089;-70
2020/12/10 04:37:43;;;;;;;33.70;20.33;;;2.00;99.90;;;;;;4991818;28;20041;-70
2020/12/10 04:40:09;;;;;;;36.22;20.58;;;1.90;99.90;;;;;;5001341;28;20704;-70
2020/12/10 04:42:38;;;;;;;32.63;20.35;;;1.90;99.90;;;;;;5011187;28;20037;-71
2020/12/10 04:45:05;;;;;;;34.30;19.75;;;1.90;99.90;;;;;;5011632;28;20014;-71
2020/12/10 04:47:30;;;;;;;33.53;20.27;;;1.90;99.90;;;;;;5010923;28;20022;-71
2020/12/10 04:50:01;;;;;;;37.10;21.10;;;1.90;99.90;;;;;;5011680;28;20022;-70
2020/12/10 04:52:27;;;;;;;37.58;21.33;;;1.90;99.90;;;;;;5010205;28;20029;-71
2020/12/10 04:54:53;;;;;;;35.47;20.58;;;1.90;99.90;;;;;;5010937;28;20356;-69
2020/12/10 04:57:20;;;;;;;35.30;21.73;;;1.90;99.90;;;;;;5011130;28;20034;-69
2020/12/10 04:59:46;;;;;;;36.35;21.00;;;1.90;99.90;;;;;;5011442;28;20073;-71
2020/12/10 05:02:12;;;;;;;32.72;20.50;;;1.80;99.90;;;;;;5011580;28;20022;-70
2020/12/10 05:04:39;;;;;;;39.08;21.80;;;1.90;99.90;;;;;;5010189;28;20030;-70
2020/12/10 05:07:05;;;;;;;34.33;20.15;;;1.80;99.90;;;;;;5010906;28;20037;-71
2020/12/10 05:09:31;;;;;;;36.22;20.65;;;1.80;99.90;;;;;;5010994;28;20022;-71
2020/12/10 05:11:56;;;;;;;38.50;20.58;;;1.90;99.90;;;;;;5010489;28;20120;-70
2020/12/10 05:14:23;;;;;;;34.20;21.05;;;1.80;99.90;;;;;;5009769;28;20084;-70
2020/12/10 05:17:12;;;;;;;32.25;19.42;;;1.80;99.90;;;;;;5010476;28;20455;-68
2020/12/10 05:19:38;;;;;;;37.08;21.38;;;1.80;99.90;;;;;;5000928;28;20060;-68
2020/12/10 05:22:06;;;;;;;33.90;20.23;;;1.80;99.90;;;;;;4988730;28;20034;-69
2020/12/10 05:24:33;;;;;;;35.63;20.73;;;1.90;99.90;;;;;;4989490;28;20448;-70
2020/12/10 05:27:24;;;;;;;36.47;19.38;;;1.80;99.90;;;;;;5003311;28;20028;-71
2020/12/10 05:29:52;;;;;;;31.65;19.88;;;1.80;99.90;;;;;;5002896;28;20030;-71
2020/12/10 05:32:43;;;;;;;34.03;19.80;;;1.80;99.90;;;;;;5009602;28;20030;-71
2020/12/10 05:35:21;;;;;;;33.92;19.13;;;1.80;99.90;;;;;;5011578;28;20045;-71
2020/12/10 05:37:47;;;;;;;38.08;21.02;;;1.80;99.90;;;;;;5012970;28;20030;-70
2020/12/10 05:40:14;;;;;;;30.30;20.23;;;1.80;99.90;;;;;;5004593;28;20026;-69
2020/12/10 05:42:45;;;;;;;33.10;20.13;;;1.80;99.90;;;;;;5013619;28;20030;-70
2020/12/10 05:45:14;;;;;;;32.47;19.67;;;1.70;99.90;;;;;;5014761;28;20022;-72
2020/12/10 05:47:48;;;;;;;34.97;20.83;;;1.80;99.90;;;;;;5015116;28;20113;-69
2020/12/10 05:50:29;;;;;;;33.05;19.55;;;1.80;99.90;;;;;;5014723;28;20026;-69
2020/12/10 05:53:05;;;;;;;36.85;20.98;;;1.80;99.90;;;;;;5012091;28;20037;-68
2020/12/10 05:55:32;;;;;;;32.40;19.52;;;1.80;99.90;;;;;;5014399;28;20524;-69
2020/12/10 05:58:00;;;;;;;34.70;19.92;;;1.90;99.90;;;;;;5013713;28;20056;-69
2020/12/10 06:00:26;;;;;;;35.20;20.67;;;1.80;99.90;;;;;;5013680;28;20092;-69
2020/12/10 06:02:54;;;;;;;38.17;21.55;;;1.70;99.90;;;;;;5012781;28;20501;-70
2020/12/10 06:05:21;;;;;;;37.72;21.98;;;1.70;99.90;;;;;;5013419;28;20026;-69
2020/12/10 06:08:07;;;;;;;40.25;21.13;;;1.80;99.90;;;;;;5012449;28;20100;-69
2020/12/10 06:10:35;;;;;;;41.17;21.10;;;1.80;99.90;;;;;;5013740;28;20448;-67
2020/12/10 06:13:02;;;;;;;50.55;24.33;;;1.80;99.90;;;;;;5011462;28;20061;-69
2020/12/10 06:15:29;;;;;;;47.63;25.17;;;2.00;99.90;;;;;;5014159;28;20036;-71
2020/12/10 06:18:08;;;;;;;52.97;26.45;;;2.10;99.90;;;;;;5013962;28;20117;-68
2020/12/10 06:20:39;;;;;;;52.90;26.42;;;2.00;99.90;;;;;;5014129;28;20057;-69
2020/12/10 06:23:28;;;;;;;55.67;28.45;;;2.00;99.90;;;;;;5013052;28;20034;-69
2020/12/10 06:25:55;;;;;;;52.00;27.10;;;2.00;99.90;;;;;;5003483;28;20027;-71
2020/12/10 06:28:23;;;;;;;56.63;26.60;;;2.10;99.90;;;;;;4993705;28;20101;-67
2020/12/10 06:31:09;;;;;;;51.97;25.55;;;2.00;99.90;;;;;;5009260;28;20050;-67
2020/12/10 06:33:46;;;;;;;59.88;30.92;;;2.00;99.90;;;;;;4993679;28;20533;-70
2020/12/10 06:36:26;;;;;;;56.05;28.38;;;2.00;99.90;;;;;;5024685;28;20585;-69
2020/12/10 06:38:53;;;;;;;57.58;27.83;;;1.90;99.90;;;;;;4995178;28;20092;-68
2020/12/10 06:41:22;;;;;;;53.55;26.63;;;1.80;99.90;;;;;;5013835;28;20025;-68
2020/12/10 06:43:48;;;;;;;59.55;29.20;;;1.90;99.90;;;;;;5013849;28;20034;-68
2020/12/10 06:46:14;;;;;;;59.08;29.05;;;1.80;99.90;;;;;;5014632;28;20373;-69
2020/12/10 06:48:48;;;;;;;56.72;27.33;;;1.80;99.90;;;;;;5015041;28;20029;-66
2020/12/10 06:51:15;;;;;;;53.03;27.15;;;1.80;99.90;;;;;;5014433;28;20108;-68
2020/12/10 06:53:59;;;;;;;54.88;28.83;;;1.90;99.90;;;;;;4983643;28;20030;-68
2020/12/10 06:56:25;;;;;;;53.95;27.90;;;1.90;99.90;;;;;;4991130;28;20033;-69
2020/12/10 06:58:53;;;;;;;54.83;28.58;;;1.90;99.90;;;;;;4975964;28;20026;-69
2020/12/10 07:01:24;;;;;;;56.15;28.58;;;1.90;99.90;;;;;;4978301;28;20023;-69
2020/12/10 07:03:56;;;;;;;59.90;29.58;;;1.90;99.90;;;;;;4973103;28;20041;-68
2020/12/10 07:06:40;;;;;;;59.40;29.45;;;1.90;99.90;;;;;;4975223;28;20094;-68
2020/12/10 07:09:13;;;;;;;60.78;28.63;;;1.90;99.90;;;;;;4976615;28;20031;-68
2020/12/10 07:11:44;;;;;;;57.80;27.48;;;1.90;99.90;;;;;;4975097;28;20057;-66
2020/12/10 07:14:27;;;;;;;58.22;27.98;;;2.00;99.90;;;;;;4974359;28;20027;-66
2020/12/10 07:16:55;;;;;;;65.32;29.20;;;1.90;99.90;;;;;;4975171;28;20019;-68
2020/12/10 07:19:21;;;;;;;61.95;30.02;;;2.00;99.90;;;;;;4975372;28;20061;-67
2020/12/10 07:21:47;;;;;;;59.95;29.13;;;2.00;99.90;;;;;;4975070;28;20038;-65
2020/12/10 07:24:13;;;;;;;63.78;29.60;;;2.00;99.90;;;;;;4974142;28;20501;-68
2020/12/10 07:26:40;;;;;;;59.70;29.25;;;2.00;99.90;;;;;;4995948;28;20428;-68
2020/12/10 07:29:06;;;;;;;56.45;28.42;;;2.00;99.90;;;;;;5013027;28;20018;-68
2020/12/10 07:31:32;;;;;;;52.35;26.85;;;2.00;99.90;;;;;;5015288;28;20054;-70
2020/12/10 07:33:58;;;;;;;61.13;29.42;;;2.00;99.90;;;;;;5012948;28;20045;-68
2020/12/10 07:36:26;;;;;;;59.20;28.15;;;2.10;99.90;;;;;;5014852;28;20068;-68
2020/12/10 07:38:52;;;;;;;56.92;28.58;;;2.00;99.90;;;;;;5014943;28;20022;-69
2020/12/10 07:41:17;;;;;;;56.22;28.48;;;2.10;99.90;;;;;;5015988;28;20058;-69
2020/12/10 07:43:53;;;;;;;61.53;29.30;;;2.10;99.90;;;;;;5016537;28;20026;-67
2020/12/10 07:46:21;;;;;;;58.78;27.20;;;2.10;99.90;;;;;;5020010;28;20026;-68
2020/12/10 07:48:49;;;;;;;55.75;27.08;;;2.10;99.90;;;;;;5022076;28;20034;-68
2020/12/10 07:51:21;;;;;;;62.40;28.40;;;2.00;99.90;;;;;;5020472;28;20532;-66
2020/12/10 07:53:48;;;;;;;60.28;28.08;;;2.10;99.90;;;;;;5021635;28;20567;-68
2020/12/10 07:56:26;;;;;;;49.08;26.30;;;2.10;99.90;;;;;;5023267;28;20030;-68
2020/12/10 07:59:02;;;;;;;51.03;26.65;;;2.10;99.90;;;;;;5028384;28;20022;-69
2020/12/10 08:01:35;;;;;;;51.85;26.90;;;2.10;99.90;;;;;;5027728;28;20044;-68
2020/12/10 08:04:20;;;;;;;51.67;25.48;;;2.00;99.90;;;;;;5015169;28;20484;-69
2020/12/10 08:06:51;;;;;;;50.15;26.20;;;2.00;99.90;;;;;;5001163;28;20041;-70
2020/12/10 08:09:17;;;;;;;53.70;26.15;;;2.00;99.90;;;;;;5015751;28;20133;-68
2020/12/10 08:11:50;;;;;;;187.25;111.47;;;2.10;99.90;;;;;;5017065;28;20026;-68
2020/12/10 08:14:36;;;;;;;123.70;76.93;;;2.20;99.90;;;;;;5011192;28;20034;-68
2020/12/10 08:17:04;;;;;;;61.00;31.73;;;2.20;99.90;;;;;;5012522;28;20141;-68
2020/12/10 08:19:31;;;;;;;59.65;29.85;;;2.20;99.90;;;;;;5013375;28;20026;-68
2020/12/10 08:21:59;;;;;;;56.55;27.55;;;2.20;99.90;;;;;;5013784;28;20484;-68
2020/12/10 08:24:44;;;;;;;61.58;28.13;;;2.20;99.90;;;;;;5012002;28;20040;-68
2020/12/10 08:27:21;;;;;;;59.92;28.20;;;2.20;99.90;;;;;;5013426;28;20101;-67
2020/12/10 08:30:02;;;;;;;63.22;30.15;;;2.20;99.90;;;;;;5011454;28;20030;-69
2020/12/10 08:32:28;;;;;;;59.42;30.80;;;2.30;99.90;;;;;;4997843;28;20022;-68
2020/12/10 08:35:08;;;;;;;57.50;29.00;;;2.30;99.90;;;;;;5012848;28;20392;-68
2020/12/10 08:37:38;;;;;;;58.83;28.65;;;2.30;99.90;;;;;;5005753;28;20125;-68
2020/12/10 08:40:05;;;;;;;61.28;29.88;;;2.30;99.90;;;;;;5010965;28;20026;-69
2020/12/10 08:42:31;;;;;;;60.72;28.98;;;2.20;99.90;;;;;;5002648;28;20168;-70
2020/12/10 08:44:57;;;;;;;57.85;28.45;;;2.20;99.90;;;;;;4991825;28;20061;-68
2020/12/10 08:47:25;;;;;;;65.35;30.10;;;2.30;99.90;;;;;;4991682;28;20035;-69
2020/12/10 08:50:26;;;;;;;63.42;29.92;;;2.40;99.90;;;;;;4992547;28;20033;-68
2020/12/10 08:53:11;;;;;;;62.53;30.98;;;2.30;99.90;;;;;;4990219;28;20022;-68
2020/12/10 08:55:45;;;;;;;55.72;28.65;;;2.40;99.90;;;;;;4991541;28;20034;-68
2020/12/10 08:58:23;;;;;;;56.28;28.85;;;2.50;99.90;;;;;;4991971;28;20098;-68
2020/12/10 09:00:51;;;;;;;50.53;24.17;;;2.50;99.90;;;;;;4992274;28;20453;-67
2020/12/10 09:03:17;;;;;;;53.47;24.77;;;2.50;99.90;;;;;;4974290;28;20037;-67
2020/12/10 09:05:44;;;;;;;51.03;23.73;;;2.60;99.90;;;;;;5007705;23;20049;-64
2020/12/10 09:08:15;;;;;;;46.42;22.83;;;2.70;99.90;;;;;;5000106;28;20098;-64
2020/12/10 09:10:41;;;;;;;43.33;23.38;;;2.80;99.90;;;;;;4972620;28;20027;-64
2020/12/10 09:13:08;;;;;;;40.55;21.27;;;2.90;99.90;;;;;;4972339;28;20392;-63
2020/12/10 09:15:35;;;;;;;40.45;21.65;;;3.00;99.90;;;;;;4972506;28;20026;-64
2020/12/10 09:18:00;;;;;;;38.42;21.15;;;3.00;99.90;;;;;;4973806;28;20030;-66
2020/12/10 09:20:26;;;;;;;40.83;21.25;;;3.00;99.90;;;;;;4973090;28;20107;-65
2020/12/10 09:22:53;;;;;;;43.53;23.10;;;3.10;99.90;;;;;;4971977;28;20035;-65
2020/12/10 09:25:19;;;;;;;49.83;24.85;;;3.00;99.90;;;;;;4987665;28;20094;-65
2020/12/10 09:27:46;;;;;;;55.35;26.77;;;3.10;99.90;;;;;;4972717;28;20023;-64
2020/12/10 09:30:16;;;;;;;47.20;24.10;;;2.90;99.90;;;;;;4972626;28;20042;-65
2020/12/10 09:32:42;;;;;;;49.17;24.70;;;2.80;99.90;;;;;;4971741;28;20038;-66
2020/12/10 09:35:17;;;;;;;62.20;29.45;;;2.90;99.90;;;;;;4979476;28;20080;-64
2020/12/10 09:38:01;;;;;;;61.63;31.60;;;2.80;99.90;;;;;;5010105;28;20034;-65
2020/12/10 09:40:28;;;;;;;51.72;25.42;;;2.80;99.90;;;;;;5011949;28;20093;-67
2020/12/10 09:42:54;;;;;;;55.58;27.70;;;2.70;99.90;;;;;;5011326;28;20058;-66
2020/12/10 09:45:20;;;;;;;57.83;26.38;;;2.70;99.90;;;;;;5011785;28;20436;-66
2020/12/10 09:47:46;;;;;;;62.58;30.23;;;2.70;99.90;;;;;;5010348;28;20069;-66
2020/12/10 09:50:21;;;;;;;54.85;28.20;;;2.60;99.90;;;;;;5011220;28;20399;-66
2020/12/10 09:53:10;;;;;;;53.33;26.08;;;2.60;99.90;;;;;;5010622;28;20080;-66
2020/12/10 09:58:22;;;;;;;53.03;26.67;;;2.80;99.90;;;;;;5011842;28;20026;-66
2020/12/10 10:00:53;;;;;;;54.67;26.88;;;2.80;99.90;;;;;;5011542;28;20060;-66
2020/12/10 10:03:20;;;;;;;58.67;27.88;;;2.90;99.90;;;;;;4996172;28;20035;-66
2020/12/10 10:05:47;;;;;;;61.38;30.60;;;3.00;99.90;;;;;;4998907;28;20515;-66
2020/12/10 10:08:15;;;;;;;59.03;26.35;;;3.00;99.90;;;;;;5010078;28;20545;-65
2020/12/10 10:10:40;;;;;;;52.10;25.35;;;3.00;99.90;;;;;;4973188;28;20034;-66
2020/12/10 10:13:06;;;;;;;54.25;26.45;;;3.00;99.90;;;;;;4991078;28;20038;-66
2020/12/10 10:15:32;;;;;;;55.80;28.17;;;2.90;99.90;;;;;;4991785;28;20030;-66
2020/12/10 10:17:58;;;;;;;54.00;27.67;;;2.90;99.90;;;;;;4990293;28;20416;-66
2020/12/10 10:20:24;;;;;;;55.45;29.48;;;3.00;99.90;;;;;;4991559;28;20041;-71
2020/12/10 10:23:13;;;;;;;56.25;29.27;;;3.00;99.90;;;;;;5001049;28;20403;-72
2020/12/10 10:25:38;;;;;;;60.60;33.38;;;3.00;99.90;;;;;;5013707;28;20510;-72
2020/12/10 10:28:04;;;;;;;59.28;29.10;;;3.00;99.90;;;;;;5015340;28;20030;-70
2020/12/10 10:30:31;;;;;;;58.83;28.00;;;3.00;99.90;;;;;;5013651;28;20380;-70
2020/12/10 10:32:57;;;;;;;57.25;27.80;;;2.90;99.90;;;;;;5014697;28;20111;-71
2020/12/10 10:35:24;;;;;;;62.70;27.98;;;3.10;99.90;;;;;;5013702;28;20476;-71
2020/12/10 10:37:52;;;;;;;59.92;30.25;;;3.00;99.90;;;;;;5015258;28;20028;-71
2020/12/10 10:40:18;;;;;;;60.63;29.10;;;3.10;99.90;;;;;;5014251;28;20026;-73
2020/12/10 10:42:45;;;;;;;54.88;28.10;;;3.10;99.90;;;;;;5014151;28;20076;-70
2020/12/10 10:45:30;;;;;;;55.45;26.95;;;3.10;99.90;;;;;;5014841;28;20480;-69
2020/12/10 10:47:57;;;;;;;62.88;30.08;;;3.00;99.90;;;;;;5010693;28;20113;-68
2020/12/10 10:50:23;;;;;;;61.38;30.27;;;3.00;99.90;;;;;;4995062;28;20026;-68
2020/12/10 10:52:49;;;;;;;57.15;27.85;;;3.00;99.90;;;;;;4994410;28;20022;-68
2020/12/10 10:55:23;;;;;;;54.00;26.77;;;3.00;99.90;;;;;;4993378;28;20027;-69
2020/12/10 10:57:49;;;;;;;57.40;27.38;;;3.10;99.90;;;;;;4992866;28;20043;-69
2020/12/10 11:00:16;;;;;;;58.85;27.45;;;3.20;99.90;;;;;;4993211;28;20476;-69
2020/12/10 11:02:41;;;;;;;55.90;28.15;;;3.20;99.90;;;;;;4986512;28;20026;-70
2020/12/10 11:05:08;;;;;;;56.92;27.00;;;3.30;99.90;;;;;;4993230;28;20043;-69
2020/12/10 11:07:36;;;;;;;56.20;27.02;;;3.30;99.90;;;;;;4997637;28;20037;-71
2020/12/10 11:10:03;;;;;;;51.92;25.15;;;3.30;99.90;;;;;;4990631;28;20513;-69
2020/12/10 11:12:32;;;;;;;51.40;25.17;;;3.10;99.90;;;;;;4990628;28;20043;-71
2020/12/10 11:15:01;;;;;;;52.58;26.58;;;3.10;99.90;;;;;;4976276;28;20127;-71
2020/12/10 11:17:47;;;;;;;53.83;26.73;;;3.20;99.90;;;;;;4988149;28;20035;-73
2020/12/10 11:20:21;;;;;;;53.28;27.55;;;3.20;99.90;;;;;;4999652;28;20032;-73
2020/12/10 11:22:54;;;;;;;51.70;25.63;;;3.30;99.90;;;;;;5013502;28;20038;-72
2020/12/10 11:25:19;;;;;;;48.65;25.10;;;3.20;99.90;;;;;;5014498;28;20022;-71
2020/12/10 11:27:45;;;;;;;47.08;25.10;;;3.30;99.90;;;;;;5015012;28;20480;-73
2020/12/10 11:30:11;;;;;;;51.58;25.85;;;3.40;99.90;;;;;;5014351;28;20059;-73
2020/12/10 11:32:53;;;;;;;45.63;24.30;;;3.30;99.90;;;;;;5011390;28;20033;-72
2020/12/10 11:35:19;;;;;;;49.28;25.33;;;3.30;99.90;;;;;;5014258;28;20092;-72
2020/12/10 11:37:46;;;;;;;45.17;23.65;;;3.40;99.90;;;;;;5013707;28;20026;-72
2020/12/10 11:40:11;;;;;;;52.53;23.70;;;3.40;99.90;;;;;;5011851;28;20018;-73
2020/12/10 11:42:37;;;;;;;49.80;24.17;;;3.30;99.90;;;;;;5012627;28;20018;-71
2020/12/10 11:45:07;;;;;;;44.65;24.33;;;3.30;99.90;;;;;;5013116;28;20083;-71
2020/12/10 11:47:32;;;;;;;48.92;24.75;;;3.30;99.90;;;;;;5013309;28;20095;-71
2020/12/10 11:49:58;;;;;;;42.13;22.83;;;3.20;99.90;;;;;;5011912;28;20109;-72
2020/12/10 11:52:24;;;;;;;50.05;24.17;;;3.20;99.90;;;;;;5013295;28;20566;-71
2020/12/10 11:55:19;;;;;;;40.92;20.40;;;3.30;99.90;;;;;;5012247;28;20053;-71
2020/12/10 11:57:50;;;;;;;42.80;22.45;;;3.30;99.90;;;;;;5012903;28;20034;-71
2020/12/10 12:00:16;;;;;;;42.45;22.33;;;3.40;99.90;;;;;;4995438;28;20061;-71
2020/12/10 12:03:17;;;;;;;43.53;22.67;;;3.30;99.90;;;;;;5012699;28;20053;-72
2020/12/10 12:05:46;;;;;;;40.80;21.08;;;3.50;99.90;;;;;;5013506;28;20043;-70
2020/12/10 12:08:35;;;;;;;83.25;25.10;;;3.40;99.90;;;;;;5010883;28;20494;-71
2020/12/10 12:11:02;;;;;;;39.72;20.75;;;3.50;99.90;;;;;;5011701;28;20068;-71
2020/12/10 12:13:28;;;;;;;38.40;20.45;;;3.40;99.90;;;;;;5011230;28;20080;-72
2020/12/10 12:15:54;;;;;;;37.08;20.42;;;3.40;99.90;;;;;;5011690;28;20513;-72
2020/12/10 12:18:20;;;;;;;43.53;21.92;;;3.40;99.90;;;;;;5011637;28;20038;-72
2020/12/10 12:20:46;;;;;;;42.17;22.02;;;3.50;99.90;;;;;;5011809;28;20034;-72
2020/12/10 12:23:13;;;;;;;50.65;24.45;;;3.40;99.90;;;;;;5010951;28;20041;-72
2020/12/10 12:25:39;;;;;;;46.05;23.63;;;3.40;99.90;;;;;;5011859;28;20084;-73
2020/12/10 12:28:10;;;;;;;46.83;23.10;;;3.40;99.90;;;;;;5011818;28;20021;-71
2020/12/10 12:30:37;;;;;;;43.55;22.85;;;3.40;99.90;;;;;;5011532;28;20038;-71
2020/12/10 12:33:03;;;;;;;37.00;19.40;;;3.30;99.90;;;;;;5009676;28;20050;-72
2020/12/10 12:35:29;;;;;;;43.00;20.58;;;3.40;99.90;;;;;;5011702;28;20488;-72
2020/12/10 12:37:56;;;;;;;35.72;19.33;;;3.40;99.90;;;;;;5012352;28;20065;-72
2020/12/10 12:40:21;;;;;;;37.97;20.48;;;3.50;99.90;;;;;;5011057;28;20037;-73
2020/12/10 12:42:47;;;;;;;37.30;19.92;;;3.50;99.90;;;;;;5010769;28;20022;-71
2020/12/10 12:45:14;;;;;;;36.55;19.48;;;3.50;99.90;;;;;;5010911;28;20022;-71
2020/12/10 12:47:42;;;;;;;36.47;19.98;;;3.40;99.90;;;;;;5010689;28;20137;-71